Fritch, Texas
Current Conditions -  °F | °C
As of 8:51 AM on Wednesday 22 Oct 2014 (Local Time) from KBGD Reporting Station
Light Rain Light Rain  
Wind Chill: 62°   Ceiling: 9000
Heat Index: 62°   Visibility: 5mi
Dew Point: 55°   Wind: 10mph
Humidity: 78%   Direction: 200°SSW
Pressure: 30.09"   Gusts: 21mph
Location:  35.64°N, 101.6°W
Report Text: KBGD 221351Z AUTO 20009G18KT 5SM -RA FEW050 FEW070 OVC090 17/13 A3009 RMK AO2 RAB47 SLP162 P0000 T01670128
Loading
Personal Weather Stations






























Interactive Weather Map
Tropical Storm Tracking
New forecast layout! Learn more

10-Day Weather Forecast

Advertisements
Track Severe Weather on mobile